Time;durP1;ratioP1;P1;durP2;ratioP2;P2;SDS_P1;SDS_P2;PMS_P1;PMS_P2;Temp;Humidity;BMP_temperature;BMP_pressure;BME280_temperature;BME280_humidity;BME280_pressure;Samples;Min_cycle;Max_cycle;Signal;HPM_P1;HPM_P2
2023/03/31 00:00:51;;;;;;;;;1.75;1.00;;;;;21.34;39.96;100024.56;5077160;28;45672;-40
2023/03/31 00:03:20;;;;;;;;;0.00;0.00;;;;;21.33;40.18;100007.09;5076718;28;45743;-40
2023/03/31 00:05:47;;;;;;;;;0.50;0.50;;;;;21.31;40.43;100008.03;5076738;27;45889;-40
2023/03/31 00:08:13;;;;;;;;;1.50;1.00;;;;;21.30;39.66;100023.94;5077123;28;45298;-40
2023/03/31 00:10:44;;;;;;;;;2.00;0.25;;;;;21.31;40.38;100028.25;5077308;28;45520;-40
2023/03/31 00:13:10;;;;;;;;;0.25;0.00;;;;;21.30;40.32;100037.97;5076764;27;46083;-42
2023/03/31 00:15:36;;;;;;;;;2.00;1.00;;;;;21.29;39.92;100022.25;5076646;28;45865;-41
2023/03/31 00:18:01;;;;;;;;;0.00;0.00;;;;;21.28;40.34;99999.47;5076829;28;45417;-40
2023/03/31 00:20:27;;;;;;;;;0.25;0.00;;;;;21.26;40.25;99928.44;5076793;28;45373;-40
2023/03/31 00:22:53;;;;;;;;;0.00;0.00;;;;;21.26;39.98;99932.88;5058446;28;45463;-40
2023/03/31 00:25:19;;;;;;;;;1.25;0.00;;;;;21.26;40.35;99930.25;5076576;28;45267;-41
2023/03/31 00:27:45;;;;;;;;;1.00;1.00;;;;;21.24;40.16;99895.25;5078295;27;46202;-40
2023/03/31 00:30:12;;;;;;;;;1.50;1.00;;;;;21.23;40.40;99891.75;5080720;27;45216;-41
2023/03/31 00:32:38;;;;;;;;;1.00;1.00;;;;;21.23;40.66;99885.66;5079856;27;46715;-40
2023/03/31 00:35:04;;;;;;;;;1.50;0.00;;;;;21.23;40.33;99875.13;5080020;28;45376;-39
2023/03/31 00:37:29;;;;;;;;;1.25;0.75;;;;;21.22;40.39;99866.38;5080057;27;45362;-39
2023/03/31 00:39:55;;;;;;;;;1.00;0.00;;;;;21.21;40.34;99856.81;5080175;28;45577;-40
2023/03/31 00:42:20;;;;;;;;;1.00;1.00;;;;;21.20;40.42;99878.84;5079766;27;46318;-40
2023/03/31 00:45:13;;;;;;;;;1.50;0.00;;;;;21.19;40.50;99869.25;5079662;28;45456;-40
2023/03/31 00:47:47;;;;;;;;;1.50;0.00;;;;;21.18;40.29;99857.03;5079989;27;45452;-39
2023/03/31 00:50:20;;;;;;;;;1.00;1.00;;;;;21.17;40.38;99860.59;5080481;28;45315;-39
2023/03/31 00:52:55;;;;;;;;;1.00;0.00;;;;;21.16;40.26;99857.16;5079603;27;45625;-39
2023/03/31 00:55:25;;;;;;;;;0.00;0.00;;;;;21.17;40.45;99834.25;5079493;28;45754;-39
2023/03/31 00:57:52;;;;;;;;;2.25;1.00;;;;;21.14;40.50;99816.88;5079696;28;45340;-39
2023/03/31 01:00:18;;;;;;;;;2.75;1.00;;;;;21.14;40.73;99831.84;5079750;27;45489;-41
2023/03/31 01:02:54;;;;;;;;;0.00;0.00;;;;;21.13;40.24;99816.97;5079762;28;46527;-41
2023/03/31 01:05:24;;;;;;;;;0.00;0.00;;;;;21.13;40.25;99817.84;5062709;28;45779;-41
2023/03/31 01:07:51;;;;;;;;;0.00;0.00;;;;;21.12;40.08;99810.03;5079705;28;45474;-42
2023/03/31 01:10:17;;;;;;;;;0.00;0.00;;;;;21.12;40.28;99794.22;5079680;28;45295;-40
2023/03/31 01:12:49;;;;;;;;;0.50;0.50;;;;;21.11;40.40;99803.09;5079593;28;45606;-40
2023/03/31 01:15:14;;;;;;;;;0.50;0.00;;;;;21.10;40.58;99801.41;5079723;28;45398;-42
2023/03/31 01:17:43;;;;;;;;;1.75;1.00;;;;;21.10;40.25;99804.06;5079398;27;45283;-40
2023/03/31 01:20:50;;;;;;;;;1.25;1.00;;;;;21.10;40.26;99801.41;5078191;28;45655;-40
2023/03/31 01:23:55;;;;;;;;;2.00;0.00;;;;;21.10;40.53;99788.25;5079555;28;45769;-40
2023/03/31 01:26:42;;;;;;;;;0.25;0.25;;;;;21.08;40.52;99783.06;5079268;27;45329;-39
2023/03/31 01:29:26;;;;;;;;;1.00;1.00;;;;;21.08;40.54;99779.63;5079306;28;45263;-40
2023/03/31 01:32:26;;;;;;;;;0.75;0.00;;;;;21.07;40.66;99780.56;5079470;28;45296;-40
2023/03/31 01:34:54;;;;;;;;;0.00;0.00;;;;;21.06;40.24;99776.25;5079041;28;45378;-40
2023/03/31 01:37:35;;;;;;;;;0.00;0.00;;;;;21.05;40.41;99775.41;5079109;28;45624;-39
2023/03/31 01:40:21;;;;;;;;;1.00;0.25;;;;;21.04;40.59;99770.25;5078308;28;45356;-40
2023/03/31 01:43:09;;;;;;;;;1.00;0.00;;;;;21.04;40.09;99760.56;5079612;28;45374;-40
2023/03/31 01:46:02;;;;;;;;;3.75;0.50;;;;;21.04;40.49;99759.72;5027142;28;46528;-40
2023/03/31 01:48:49;;;;;;;;;0.25;0.00;;;;;21.04;40.28;99754.44;5079029;28;45926;-39
2023/03/31 01:51:25;;;;;;;;;3.00;1.00;;;;;21.03;40.69;99742.22;5079253;28;46041;-40
2023/03/31 01:54:20;;;;;;;;;0.00;0.00;;;;;21.02;40.57;99736.13;5079003;27;45419;-40
2023/03/31 01:56:51;;;;;;;;;0.75;0.75;;;;;21.00;40.19;99728.31;5078971;27;46727;-38
2023/03/31 01:59:25;;;;;;;;;0.25;0.25;;;;;20.99;40.34;99710.00;5078887;28;45832;-39
2023/03/31 02:02:09;;;;;;;;;0.00;0.00;;;;;21.00;40.67;99719.59;5078669;27;45385;-40
2023/03/31 02:04:43;;;;;;;;;1.00;0.00;;;;;21.00;40.47;99716.97;5079031;28;45351;-39
2023/03/31 02:07:16;;;;;;;;;1.50;0.00;;;;;21.00;40.73;99714.31;5078548;28;46404;-42
2023/03/31 02:09:48;;;;;;;;;1.25;1.00;;;;;21.00;40.24;99703.78;5078427;27;45319;-40
2023/03/31 02:12:15;;;;;;;;;0.00;0.00;;;;;20.98;40.22;99697.78;5078622;27;45382;-41
2023/03/31 02:14:46;;;;;;;;;0.25;0.00;;;;;20.98;40.42;99695.16;5078889;28;45597;-41
2023/03/31 02:17:17;;;;;;;;;2.50;0.00;;;;;20.98;40.55;99693.38;5078365;27;46422;-40
2023/03/31 02:19:46;;;;;;;;;2.00;1.00;;;;;20.97;40.39;99691.69;5078440;27;45748;-43
2023/03/31 02:22:14;;;;;;;;;2.50;0.50;;;;;20.97;40.71;99688.19;5078613;27;45327;-42
2023/03/31 02:24:42;;;;;;;;;1.50;1.00;;;;;20.97;40.74;99677.66;5078515;28;45629;-44
2023/03/31 02:27:19;;;;;;;;;1.75;0.50;;;;;20.96;40.45;99692.66;5078208;28;45421;-41
2023/03/31 02:29:45;;;;;;;;;1.00;0.00;;;;;20.95;40.56;99672.53;5078269;27;45803;-43
2023/03/31 02:32:31;;;;;;;;;1.00;0.00;;;;;20.97;40.63;99669.75;5078219;28;45303;-40
2023/03/31 02:34:56;;;;;;;;;0.50;0.00;;;;;20.95;40.52;99667.25;5078278;28;45548;-41
2023/03/31 02:37:22;;;;;;;;;2.00;1.00;;;;;20.94;40.33;99649.78;5077921;28;46262;-40
2023/03/31 02:39:51;;;;;;;;;1.00;1.00;;;;;20.96;40.95;99652.28;5078234;28;45474;-41
2023/03/31 02:42:18;;;;;;;;;1.75;0.25;;;;;20.94;40.58;99633.97;5078392;27;45232;-41
2023/03/31 02:44:43;;;;;;;;;0.00;0.00;;;;;20.93;40.61;99632.28;5078337;28;45489;-41
2023/03/31 02:47:13;;;;;;;;;0.50;0.25;;;;;20.94;40.76;99623.44;5077721;28;46085;-43
2023/03/31 02:49:44;;;;;;;;;1.00;1.00;;;;;20.92;40.77;99614.81;5059446;28;45650;-41
2023/03/31 02:52:31;;;;;;;;;1.00;0.25;;;;;20.94;40.88;99609.44;5077078;28;45414;-41
2023/03/31 02:55:20;;;;;;;;;1.25;0.00;;;;;20.93;40.78;99598.06;5078184;28;45351;-47
2023/03/31 02:58:06;;;;;;;;;1.00;0.00;;;;;20.92;40.91;99593.72;5077618;28;47244;-43
2023/03/31 03:00:52;;;;;;;;;1.00;1.00;;;;;20.91;40.71;99589.41;5077736;28;45758;-39
2023/03/31 03:03:18;;;;;;;;;0.25;0.25;;;;;20.92;40.77;99591.09;5060118;28;45307;-40
2023/03/31 03:06:04;;;;;;;;;0.00;0.00;;;;;20.91;40.77;99581.53;5077898;28;45512;-40
2023/03/31 03:08:54;;;;;;;;;1.00;1.00;;;;;20.91;40.89;99580.69;5077222;27;46478;-41
2023/03/31 03:11:26;;;;;;;;;1.75;0.75;;;;;20.90;40.70;99579.84;5077757;27;45182;-41
2023/03/31 03:14:08;;;;;;;;;2.50;0.50;;;;;20.91;40.46;99585.97;5077641;28;45401;-40
2023/03/31 03:16:44;;;;;;;;;1.25;0.50;;;;;20.90;41.00;99577.22;5077532;28;45293;-41
2023/03/31 03:19:16;;;;;;;;;1.00;0.00;;;;;20.89;40.64;99577.34;5077465;27;45684;-42
2023/03/31 03:21:43;;;;;;;;;0.00;0.00;;;;;20.88;40.93;99581.78;5077325;28;45654;-41
2023/03/31 03:24:08;;;;;;;;;1.00;0.00;;;;;20.88;40.66;99586.19;5077372;28;45355;-41
2023/03/31 03:26:34;;;;;;;;;1.00;1.00;;;;;20.88;40.70;99571.25;5077659;28;45602;-43
2023/03/31 03:28:59;;;;;;;;;2.25;1.00;;;;;20.88;40.88;99570.38;5077064;27;46142;-44
2023/03/31 03:31:24;;;;;;;;;0.00;0.00;;;;;20.88;40.85;99571.25;5077260;28;45581;-40
2023/03/31 03:33:50;;;;;;;;;0.00;0.00;;;;;20.88;40.56;99557.22;5059378;28;45355;-42
2023/03/31 03:36:16;;;;;;;;;1.00;1.00;;;;;20.89;40.86;99558.91;5059222;28;45545;-41
2023/03/31 03:38:41;;;;;;;;;1.00;1.00;;;;;20.87;40.51;99559.03;5077035;28;45414;-41
2023/03/31 03:41:07;;;;;;;;;1.50;1.00;;;;;20.85;40.82;99550.41;5077067;28;45313;-39
2023/03/31 03:43:32;;;;;;;;;1.00;0.00;;;;;20.86;40.68;99546.81;5077052;27;45361;-41
2023/03/31 03:45:57;;;;;;;;;1.75;0.50;;;;;20.87;40.98;99551.13;5077389;28;45401;-40
2023/03/31 03:48:23;;;;;;;;;0.50;0.50;;;;;20.86;40.98;99541.56;5077211;28;45676;-41
2023/03/31 03:50:48;;;;;;;;;1.00;1.00;;;;;20.87;40.78;99539.75;5076899;28;45377;-41
2023/03/31 03:53:14;;;;;;;;;0.25;0.00;;;;;20.87;40.95;99537.09;5076919;28;45417;-41
2023/03/31 03:55:40;;;;;;;;;2.00;0.25;;;;;20.84;41.05;99532.91;5077042;28;45259;-41
2023/03/31 03:58:06;;;;;;;;;2.50;2.00;;;;;20.85;40.35;99529.34;5076860;28;45413;-40
2023/03/31 04:00:32;;;;;;;;;2.25;1.00;;;;;20.84;40.95;99528.47;5076831;28;45193;-40
2023/03/31 04:02:57;;;;;;;;;1.00;1.00;;;;;20.84;41.00;99522.38;5076528;27;45256;-40
2023/03/31 04:05:23;;;;;;;;;1.00;1.00;;;;;20.84;40.85;99511.84;5077288;28;45276;-40
2023/03/31 04:07:48;;;;;;;;;1.00;1.00;;;;;20.84;40.55;99517.94;5076579;28;46626;-40
2023/03/31 04:10:13;;;;;;;;;8.00;1.00;;;;;20.83;40.52;99508.41;5076447;28;45371;-41
2023/03/31 04:12:57;;;;;;;;;1.00;0.75;;;;;20.83;40.59;99502.28;5076495;28;45452;-41
2023/03/31 04:15:22;;;;;;;;;0.50;0.50;;;;;20.84;41.21;99501.31;5077142;28;45306;-40
2023/03/31 04:17:49;;;;;;;;;1.00;1.00;;;;;20.82;40.74;99493.56;5075695;28;71625;-40
2023/03/31 04:20:16;;;;;;;;;1.50;1.50;;;;;20.82;40.80;99509.34;5076350;27;45306;-41
2023/03/31 04:22:45;;;;;;;;;4.25;2.00;;;;;20.81;41.01;99512.94;5058325;28;45375;-42
2023/03/31 04:25:15;;;;;;;;;0.75;0.75;;;;;20.82;41.12;99505.88;5076682;27;45311;-41
2023/03/31 04:27:49;;;;;;;;;4.75;3.00;;;;;20.82;40.81;99513.75;5076261;27;46524;-44
2023/03/31 04:30:21;;;;;;;;;4.00;4.00;;;;;20.80;40.61;99500.72;5076232;28;45356;-44
2023/03/31 04:32:50;;;;;;;;;8.00;8.00;;;;;20.80;40.82;99500.72;5076288;28;45409;-43
2023/03/31 04:35:17;;;;;;;;;8.25;6.50;;;;;20.80;41.02;99484.06;5076536;28;45388;-42
2023/03/31 04:37:44;;;;;;;;;9.50;7.00;;;;;20.82;40.90;99503.22;5076215;27;47400;-42
2023/03/31 04:40:09;;;;;;;;;13.00;11.00;;;;;20.81;40.89;99496.28;5076223;28;45470;-42
2023/03/31 04:42:35;;;;;;;;;8.50;7.75;;;;;20.82;40.87;99492.69;5076284;28;45247;-43
2023/03/31 04:45:01;;;;;;;;;16.50;11.75;;;;;20.81;41.03;99491.03;5076577;28;45334;-42
2023/03/31 04:47:27;;;;;;;;;11.75;11.25;;;;;20.80;41.14;99479.66;5076342;28;45435;-41
2023/03/31 04:49:52;;;;;;;;;15.50;13.00;;;;;20.79;40.75;99493.78;5076094;28;45188;-41
2023/03/31 04:52:17;;;;;;;;;13.75;12.00;;;;;20.80;41.09;99499.88;5076109;28;45868;-40
2023/03/31 04:54:43;;;;;;;;;13.00;11.00;;;;;20.80;41.16;99502.50;5076190;28;45598;-40
2023/03/31 04:57:08;;;;;;;;;13.00;12.25;;;;;20.80;40.92;99495.47;5075762;28;52401;-40
2023/03/31 04:59:33;;;;;;;;;13.25;11.50;;;;;20.80;41.11;99510.41;5075923;28;45235;-40
2023/03/31 05:01:59;;;;;;;;;12.00;11.25;;;;;20.80;40.81;99482.28;5076346;27;51945;-40
2023/03/31 05:04:24;;;;;;;;;10.00;10.00;;;;;20.81;41.29;99496.28;5076679;28;45481;-40
2023/03/31 05:06:50;;;;;;;;;13.75;9.75;;;;;20.79;40.97;99485.88;5075767;28;46505;-41
2023/03/31 05:09:15;;;;;;;;;13.75;11.25;;;;;20.80;41.02;99489.34;5057650;28;45599;-42
2023/03/31 05:11:40;;;;;;;;;10.75;9.75;;;;;20.79;40.95;99491.16;5075740;28;45880;-42
2023/03/31 05:14:06;;;;;;;;;13.25;12.00;;;;;20.78;40.90;99489.47;5076948;28;45585;-40
2023/03/31 05:16:31;;;;;;;;;11.25;10.00;;;;;20.79;41.09;99485.03;5079238;28;45404;-40
2023/03/31 05:18:56;;;;;;;;;11.75;8.50;;;;;20.78;40.97;99492.09;5079603;28;45412;-41
2023/03/31 05:21:22;;;;;;;;;10.50;10.50;;;;;20.78;40.79;99481.56;5079396;28;45345;-40
2023/03/31 05:23:48;;;;;;;;;12.50;9.50;;;;;20.78;40.79;99478.94;5079442;28;45429;-40
2023/03/31 05:26:13;;;;;;;;;12.00;10.00;;;;;20.79;41.10;99485.03;5079114;28;46471;-40
2023/03/31 05:28:40;;;;;;;;;10.00;8.00;;;;;20.78;40.83;99467.59;5078999;28;45221;-39
2023/03/31 05:31:07;;;;;;;;;10.00;9.00;;;;;20.77;40.64;99472.00;5079167;28;45240;-39
2023/03/31 05:33:32;;;;;;;;;9.50;7.50;;;;;20.77;40.98;99465.91;5079185;27;45406;-39
2023/03/31 05:35:59;;;;;;;;;9.50;6.50;;;;;20.76;41.20;99467.69;5079158;27;47211;-40
2023/03/31 05:38:27;;;;;;;;;9.00;8.00;;;;;20.76;41.11;99474.75;5078846;28;45486;-39
2023/03/31 05:40:54;;;;;;;;;11.75;8.25;;;;;20.75;41.05;99462.53;5079118;27;45292;-39
2023/03/31 05:43:19;;;;;;;;;7.75;7.25;;;;;20.76;40.67;99458.97;5079195;28;45335;-39
2023/03/31 05:45:44;;;;;;;;;8.75;6.50;;;;;20.75;41.06;99458.09;5078308;28;58330;-43
2023/03/31 05:48:10;;;;;;;;;8.33;7.00;;;;;20.75;40.85;99467.81;5078118;27;65012;-40
2023/03/31 05:50:35;;;;;;;;;8.50;6.00;;;;;20.74;40.48;99455.56;5078758;28;45271;-40
2023/03/31 05:53:00;;;;;;;;;7.00;7.00;;;;;20.75;40.73;99452.84;5079372;28;45213;-39
2023/03/31 05:55:26;;;;;;;;;9.75;8.00;;;;;20.74;41.03;99452.94;5078515;27;48565;-39
2023/03/31 05:57:51;;;;;;;;;7.25;6.00;;;;;20.74;40.88;99466.97;5077913;28;63646;-39
2023/03/31 06:00:16;;;;;;;;;7.50;7.50;;;;;20.73;40.94;99457.34;5078721;27;45224;-40
2023/03/31 06:02:42;;;;;;;;;7.25;7.00;;;;;20.76;41.03;99469.50;5078907;28;45165;-39
2023/03/31 06:05:07;;;;;;;;;9.75;7.50;;;;;20.73;40.61;99474.97;5060324;28;48393;-40
2023/03/31 06:07:33;;;;;;;;;8.00;4.25;;;;;20.74;40.41;99471.38;5080207;27;45365;-39
2023/03/31 06:09:58;;;;;;;;;6.75;4.00;;;;;20.72;40.85;99466.22;5078759;27;45372;-39
2023/03/31 06:12:23;;;;;;;;;7.25;4.00;;;;;20.74;40.64;99476.63;5078586;28;45370;-40
2023/03/31 06:14:49;;;;;;;;;6.00;6.00;;;;;20.72;41.08;99468.88;5078253;27;46494;-39
2023/03/31 06:17:14;;;;;;;;;4.75;4.75;;;;;20.73;40.67;99464.44;5078093;28;46505;-40
2023/03/31 06:19:39;;;;;;;;;8.00;6.00;;;;;20.73;40.86;99464.44;5077975;28;45392;-39
2023/03/31 06:22:05;;;;;;;;;6.00;3.00;;;;;20.73;40.51;99462.63;5059958;28;45319;-39
2023/03/31 06:24:30;;;;;;;;;7.00;5.00;;;;;20.72;40.51;99463.59;5077596;28;68497;-39
2023/03/31 06:26:55;;;;;;;;;6.00;5.00;;;;;20.73;40.73;99467.06;5077919;28;50678;-39
2023/03/31 06:29:21;;;;;;;;;4.00;4.00;;;;;20.72;40.58;99460.97;5078353;28;45454;-40
2023/03/31 06:31:46;;;;;;;;;5.75;4.00;;;;;20.70;40.39;99463.69;5077861;28;50796;-39
2023/03/31 06:34:11;;;;;;;;;4.25;4.00;;;;;20.73;40.52;99473.16;5059834;28;47392;-40
2023/03/31 06:36:37;;;;;;;;;6.00;4.00;;;;;20.71;40.74;99446.13;5078045;28;45448;-40
2023/03/31 06:39:02;;;;;;;;;10.50;5.75;;;;;20.73;40.69;99474.97;5077923;28;52682;-39
2023/03/31 06:41:27;;;;;;;;;5.50;5.50;;;;;20.72;40.58;99481.19;5078247;28;45478;-40
2023/03/31 06:43:53;;;;;;;;;4.00;4.00;;;;;20.72;40.82;99468.00;5077008;28;68454;-41
2023/03/31 06:46:18;;;;;;;;;5.00;4.00;;;;;20.73;40.66;99473.16;5077880;28;45428;-42
2023/03/31 06:48:43;;;;;;;;;10.00;4.00;;;;;20.72;40.61;99484.66;5077641;28;51700;-41
2023/03/31 06:51:09;;;;;;;;;9.00;3.00;;;;;20.71;40.88;99480.34;5077152;28;55909;-39
2023/03/31 06:53:35;;;;;;;;;4.00;3.00;;;;;20.68;40.75;99476.13;5078051;27;45523;-40
2023/03/31 06:56:02;;;;;;;;;4.50;3.00;;;;;20.70;40.29;99491.84;5078085;28;45354;-40
2023/03/31 06:58:27;;;;;;;;;6.00;3.75;;;;;20.71;40.48;99482.97;5077931;28;45414;-41
2023/03/31 07:00:52;;;;;;;;;8.00;3.00;;;;;20.72;40.82;99473.28;5077918;28;45642;-41
2023/03/31 07:03:21;;;;;;;;;4.50;3.00;;;;;20.73;40.66;99472.31;5077522;28;45574;-41
2023/03/31 07:05:51;;;;;;;;;5.50;3.00;;;;;20.73;40.67;99472.31;5077627;28;45958;-40
2023/03/31 07:08:17;;;;;;;;;3.00;3.00;;;;;20.74;40.54;99466.09;5077702;27;45308;-40
2023/03/31 07:10:46;;;;;;;;;5.00;4.00;;;;;20.76;40.84;99464.22;5077659;28;45447;-40
2023/03/31 07:13:12;;;;;;;;;6.75;2.00;;;;;20.77;40.75;99465.91;5077324;28;47408;-40
2023/03/31 07:15:37;;;;;;;;;5.00;3.75;;;;;20.78;41.16;99459.69;5077391;28;46024;-40
2023/03/31 07:18:03;;;;;;;;;5.75;3.25;;;;;20.78;40.91;99468.41;5077726;27;45523;-40
2023/03/31 07:20:29;;;;;;;;;3.25;3.00;;;;;20.80;40.71;99465.63;5077744;28;45317;-40
2023/03/31 07:22:55;;;;;;;;;6.00;2.75;;;;;20.80;40.70;99468.28;5077307;28;46318;-40
2023/03/31 07:25:20;;;;;;;;;6.00;3.50;;;;;20.79;40.89;99467.44;5077258;27;45189;-40
2023/03/31 07:27:46;;;;;;;;;3.75;3.00;;;;;20.77;40.76;99464.09;5077421;28;45344;-41
2023/03/31 07:30:16;;;;;;;;;7.33;3.00;;;;;20.81;41.03;99469.94;5058871;28;47473;-41
2023/03/31 07:32:41;;;;;;;;;3.50;3.25;;;;;20.82;40.67;99487.44;5058735;28;47853;-40
2023/03/31 07:35:08;;;;;;;;;9.00;4.00;;;;;20.81;40.76;99483.97;5058256;27;45331;-41
2023/03/31 07:37:38;;;;;;;;;4.00;3.00;;;;;20.83;40.82;99486.47;5076129;27;45461;-40
2023/03/31 07:40:04;;;;;;;;;6.25;4.00;;;;;20.82;40.96;99464.59;5076563;28;45591;-43
2023/03/31 07:42:30;;;;;;;;;6.25;5.25;;;;;20.82;40.50;99475.13;5076485;28;46527;-41
2023/03/31 07:44:56;;;;;;;;;3.25;2.00;;;;;20.82;40.59;99488.28;5058531;28;45354;-43
2023/03/31 07:47:23;;;;;;;;;4.00;3.25;;;;;20.82;40.44;99485.66;5058963;28;45378;-40
2023/03/31 07:49:49;;;;;;;;;7.75;4.50;;;;;20.81;40.53;99481.34;5058990;28;45518;-42
2023/03/31 07:52:14;;;;;;;;;5.50;2.25;;;;;20.83;40.55;99483.84;5076706;28;46662;-39
2023/03/31 07:54:39;;;;;;;;;5.25;3.00;;;;;20.85;40.58;99489.84;5076348;27;45566;-38
2023/03/31 07:57:07;;;;;;;;;3.25;2.00;;;;;20.85;40.45;99492.47;5058834;28;45665;-37
2023/03/31 07:59:32;;;;;;;;;6.25;3.25;;;;;20.85;40.96;99479.31;5076956;28;45523;-39
2023/03/31 08:01:57;;;;;;;;;3.25;2.25;;;;;20.85;41.01;99481.94;5076430;27;45599;-38
2023/03/31 08:04:23;;;;;;;;;2.75;2.00;;;;;20.85;40.55;99481.94;5076224;28;45457;-37
2023/03/31 08:06:50;;;;;;;;;5.25;2.00;;;;;20.85;40.68;99487.19;5076392;27;52678;-36
2023/03/31 08:09:18;;;;;;;;;3.25;2.00;;;;;20.84;40.51;99478.44;5076800;28;45332;-37
2023/03/31 08:11:43;;;;;;;;;2.50;2.00;;;;;20.84;40.55;99481.06;5076169;28;45523;-38
2023/03/31 08:14:09;;;;;;;;;4.00;2.00;;;;;20.84;40.46;99475.00;5076757;28;45780;-37
2023/03/31 08:16:34;;;;;;;;;4.50;3.00;;;;;20.84;40.41;99480.25;5076509;28;45582;-38
2023/03/31 08:19:00;;;;;;;;;4.25;2.00;;;;;20.82;40.41;99483.03;5076844;28;45633;-38
2023/03/31 08:21:27;;;;;;;;;7.00;4.00;;;;;20.83;40.68;99497.00;5076266;28;45360;-38
2023/03/31 08:23:54;;;;;;;;;4.25;1.25;;;;;20.83;40.40;99487.34;5076305;28;45874;-40
2023/03/31 08:26:20;;;;;;;;;2.75;2.00;;;;;20.83;40.59;99491.75;5076396;28;45224;-40
2023/03/31 08:28:48;;;;;;;;;4.75;2.50;;;;;20.83;40.76;99489.13;5058370;28;45400;-40
2023/03/31 08:31:15;;;;;;;;;5.50;3.75;;;;;20.83;40.47;99494.38;5076020;28;47217;-38
2023/03/31 08:33:40;;;;;;;;;4.50;2.50;;;;;20.82;40.63;99483.03;5057831;27;45411;-38
2023/03/31 08:36:09;;;;;;;;;3.25;1.00;;;;;20.83;40.15;99473.31;5059748;27;45631;-38
2023/03/31 08:38:40;;;;;;;;;4.25;1.25;;;;;20.82;40.20;99475.13;5056194;28;45373;-39
2023/03/31 08:41:34;;;;;;;;;2.00;2.00;;;;;20.82;40.22;99476.91;5056015;28;46647;-37
2023/03/31 08:44:03;;;;;;;;;4.25;2.50;;;;;20.82;40.48;99477.75;5055899;28;45960;-36
2023/03/31 08:46:32;;;;;;;;;2.75;2.00;;;;;20.82;40.33;99472.47;5055590;28;45237;-36
2023/03/31 08:48:58;;;;;;;;;7.00;3.50;;;;;20.82;40.39;99467.22;5058255;28;45322;-39
2023/03/31 08:51:31;;;;;;;;;8.00;3.75;;;;;20.81;40.58;99469.94;5062647;27;46041;-38
2023/03/31 08:54:02;;;;;;;;;3.50;3.50;;;;;20.82;40.33;99466.38;5059028;28;45680;-36
2023/03/31 08:56:29;;;;;;;;;1.00;0.25;;;;;20.82;40.47;99461.09;5059128;28;45422;-38
2023/03/31 08:59:00;;;;;;;;;3.50;2.25;;;;;20.82;40.60;99469.00;5059979;28;45474;-38
2023/03/31 09:01:34;;;;;;;;;3.50;2.25;;;;;20.82;40.27;99472.47;5059006;28;46375;-36
2023/03/31 09:04:27;;;;;;;;;2.00;1.00;;;;;20.82;40.23;99456.69;5059158;28;45772;-36
2023/03/31 09:07:02;;;;;;;;;6.00;2.50;;;;;20.83;40.75;99474.16;5059313;28;45269;-39
2023/03/31 09:09:42;;;;;;;;;5.00;3.00;;;;;20.82;40.20;99474.25;5068397;27;45491;-36
2023/03/31 09:12:15;;;;;;;;;4.00;2.00;;;;;20.82;40.43;99475.13;5079328;28;46243;-35
2023/03/31 09:14:52;;;;;;;;;1.00;1.00;;;;;20.81;40.23;99462.91;5060820;28;46342;-40
2023/03/31 09:17:24;;;;;;;;;3.00;2.00;;;;;20.81;40.28;99455.00;5078920;28;45283;-37
2023/03/31 09:20:08;;;;;;;;;2.00;1.00;;;;;20.83;40.62;99452.25;5077918;28;45461;-39
2023/03/31 09:22:47;;;;;;;;;2.50;2.00;;;;;20.83;40.72;99478.56;5060438;28;47720;-41
2023/03/31 09:25:21;;;;;;;;;2.50;1.75;;;;;20.85;40.24;99469.59;5078925;28;45873;-36
2023/03/31 09:27:51;;;;;;;;;1.75;1.75;;;;;20.86;40.66;99480.97;5079305;28;45444;-39
2023/03/31 09:30:20;;;;;;;;;2.00;1.50;;;;;20.86;40.17;99473.06;5079198;28;45565;-39
2023/03/31 09:32:51;;;;;;;;;4.50;3.00;;;;;20.85;40.21;99476.66;5078876;28;46365;-39
2023/03/31 09:35:24;;;;;;;;;4.00;2.00;;;;;20.84;40.69;99467.91;5078820;28;45308;-40
2023/03/31 09:37:50;;;;;;;;;4.00;2.00;;;;;20.82;40.60;99479.53;5079132;28;45624;-40
2023/03/31 09:40:19;;;;;;;;;2.75;1.50;;;;;20.83;40.32;99466.25;5079027;28;45425;-38
2023/03/31 09:42:46;;;;;;;;;4.25;1.50;;;;;20.82;40.23;99466.38;5078572;28;47090;-38
2023/03/31 09:45:17;;;;;;;;;2.00;2.00;;;;;20.82;40.59;99461.97;5078828;28;45788;-39
2023/03/31 09:47:46;;;;;;;;;2.50;2.00;;;;;20.81;40.60;99469.94;5078992;27;45323;-38
2023/03/31 09:50:11;;;;;;;;;3.00;1.00;;;;;20.82;40.56;99456.69;5079212;28;45223;-38
2023/03/31 09:52:42;;;;;;;;;4.00;1.00;;;;;20.83;40.59;99461.00;5078860;27;46014;-38
2023/03/31 09:55:36;;;;;;;;;2.50;0.75;;;;;20.84;40.02;99467.09;5078596;28;45988;-38
2023/03/31 09:58:06;;;;;;;;;3.00;1.00;;;;;20.83;40.00;99454.88;5078655;28;45399;-38
2023/03/31 10:00:33;;;;;;;;;5.25;1.25;;;;;20.84;40.40;99441.56;5093639;27;45318;-38
2023/03/31 10:03:05;;;;;;;;;3.50;1.00;;;;;20.84;40.46;99453.91;5078330;28;45496;-40
2023/03/31 10:05:47;;;;;;;;;1.00;1.00;;;;;20.83;40.45;99439.06;5078290;27;45559;-39
2023/03/31 10:08:15;;;;;;;;;2.50;2.00;;;;;20.84;40.32;99444.22;5078182;28;45347;-39
2023/03/31 10:11:05;;;;;;;;;2.50;1.00;;;;;20.83;40.61;99453.09;5078561;28;45475;-39
2023/03/31 10:13:51;;;;;;;;;1.25;1.25;;;;;20.84;40.13;99443.38;5075141;27;46344;-42
2023/03/31 10:16:26;;;;;;;;;0.75;0.75;;;;;20.85;40.15;99439.81;5078689;28;45493;-40
2023/03/31 10:18:52;;;;;;;;;1.50;1.50;;;;;20.86;40.14;99444.13;5078554;28;45322;-39
2023/03/31 10:21:35;;;;;;;;;5.00;1.00;;;;;20.85;40.07;99458.22;5078656;28;45497;-41
2023/03/31 10:24:07;;;;;;;;;3.25;0.75;;;;;20.84;40.14;99465.28;5078410;28;45373;-39
2023/03/31 10:26:32;;;;;;;;;2.00;1.00;;;;;20.83;40.36;99463.63;5078467;28;45743;-43
2023/03/31 10:28:58;;;;;;;;;2.00;0.25;;;;;20.82;40.41;99467.22;5060388;28;45376;-41
2023/03/31 10:31:26;;;;;;;;;1.00;1.00;;;;;20.83;40.39;99453.09;5078637;28;45489;-40
2023/03/31 10:33:52;;;;;;;;;2.25;2.00;;;;;20.84;40.12;99448.66;5078083;28;46530;-42
2023/03/31 10:36:28;;;;;;;;;1.50;1.50;;;;;20.83;40.60;99446.97;5078271;28;45429;-41
2023/03/31 10:38:57;;;;;;;;;1.00;1.00;;;;;20.84;40.55;99443.38;5078111;28;45457;-39
2023/03/31 10:41:26;;;;;;;;;1.25;1.00;;;;;20.84;40.52;99446.03;5078394;28;45454;-39
2023/03/31 10:43:57;;;;;;;;;2.75;1.25;;;;;20.83;39.95;99453.09;5077887;28;46367;-39
2023/03/31 10:46:46;;;;;;;;;0.75;0.50;;;;;20.85;40.26;99442.44;5076368;28;45352;-39
2023/03/31 10:49:24;;;;;;;;;1.00;1.00;;;;;20.84;40.06;99452.09;5078378;28;45380;-39
2023/03/31 10:51:55;;;;;;;;;1.75;1.75;;;;;20.83;40.02;99439.94;5077935;28;45468;-40
2023/03/31 10:54:20;;;;;;;;;3.25;1.00;;;;;20.84;40.16;99438.13;5077577;28;47396;-39
2023/03/31 10:56:50;;;;;;;;;2.00;0.50;;;;;20.84;39.99;99453.91;5077716;28;45316;-39
2023/03/31 10:59:36;;;;;;;;;3.00;0.75;;;;;20.84;40.05;99438.94;5078107;28;45351;-39
2023/03/31 11:02:23;;;;;;;;;0.00;0.00;;;;;20.85;39.79;99445.06;5077803;28;45440;-39
2023/03/31 11:05:14;;;;;;;;;1.25;0.25;;;;;20.85;40.06;99450.34;5059235;28;45852;-41
2023/03/31 11:07:57;;;;;;;;;2.00;1.00;;;;;20.85;40.13;99445.06;5059311;28;45385;-39
2023/03/31 11:10:44;;;;;;;;;0.00;0.00;;;;;20.86;39.96;99446.75;5077520;28;45516;-39
2023/03/31 11:13:34;;;;;;;;;0.00;0.00;;;;;20.87;39.93;99451.06;5076939;28;45696;-40
2023/03/31 11:16:19;;;;;;;;;1.00;0.00;;;;;20.84;40.09;99467.91;5077272;28;46535;-40
2023/03/31 11:19:04;;;;;;;;;1.50;1.00;;;;;20.87;39.88;99463.38;5077791;28;45849;-40
2023/03/31 11:21:48;;;;;;;;;1.00;1.00;;;;;20.86;39.96;99444.13;5077646;28;45593;-40
2023/03/31 11:24:31;;;;;;;;;1.00;0.00;;;;;20.85;40.11;99458.22;5078084;28;45236;-40
2023/03/31 11:26:56;;;;;;;;;2.00;0.00;;;;;20.86;39.80;99441.47;5077439;28;46476;-40
2023/03/31 11:29:41;;;;;;;;;1.00;1.00;;;;;20.84;40.33;99438.94;5077371;28;45272;-43
2023/03/31 11:32:46;;;;;;;;;2.50;1.25;;;;;20.86;40.13;99436.22;5077499;28;45335;-39
2023/03/31 11:35:17;;;;;;;;;1.00;1.00;;;;;20.85;40.28;99443.25;5077467;28;45339;-39
2023/03/31 11:38:10;;;;;;;;;5.25;1.25;;;;;20.85;39.88;99439.81;5077398;28;46448;-39
2023/03/31 11:40:35;;;;;;;;;3.00;0.00;;;;;20.85;40.01;99429.25;5077041;28;45849;-40
2023/03/31 11:43:06;;;;;;;;;1.00;1.00;;;;;20.84;39.60;99419.69;5076344;28;45437;-40
2023/03/31 11:45:43;;;;;;;;;2.25;1.25;;;;;20.85;39.62;99418.72;5077060;28;45281;-39
2023/03/31 11:48:41;;;;;;;;;3.00;1.00;;;;;20.84;39.88;99422.31;5076957;28;45397;-39